PWSweather.com
Personal Weather Stations
Station Observations
CW4114
Near Downtown, Rogers City, MI 49779

Near DowntownRogers City, MI 49779

Lat: 45.417443, Lon: -83.810642

Elevation: 605

Station Type: Davis Vantage Pro2 w/Solar

Latest ConditionsUpdated 7:04:09 AM EST Tuesday, Dec 6, 2016
Currently Today's Max Today's Min Today's Average
Temperature 34.2°F1.2°C 34.5°F1.4°C 32.4°F0.2°C 33.4°F0.8°C
Dew Point 32.4°F0.2°C 32.4°F0.2°C 30.6°F-0.8°C 31.2°F-0.4°C
Winds 2.5 mph SE4.0 kmh SE 4.9 mph SSE7.9 kmh SSE - 3.3 mph 5.3 kmh
Wind Gusts 5.4 mph8.7 kmh 9.6 mph15.4 kmh - -
Humidity 93% 93% 89% 92%
Pressure 29.98 in1015.2 mb 30.05 in1017.6 mb 29.98 in1015.2 mb -
Hour Temp Dew Point Humidity Winds Wind Gusts Pressure Precip Precip Rate Daily Precip Total
07:04 AM 34.2°F1.2°C 32.4°F0.2°C 93% 2.5 mph SE4.0 kmh SE 5.4 mph8.7 kmh 29.98 in1015.2 mb 0.00 in0.0 mm 0.00 in0.0 mm 0.00 in0.0 mm
06:59 AM 34.2°F1.2°C 32.0°F0.0°C 92% 2.5 mph SSW4.0 kmh SSW 6.3 mph10.1 kmh 29.98 in1015.2 mb 0.00 in0.0 mm 0.00 in0.0 mm 0.00 in0.0 mm
06:54 AM 34.2°F1.2°C 32.0°F0.0°C 92% 2.2 mph S3.5 kmh S 5.4 mph8.7 kmh 29.98 in1015.2 mb 0.00 in0.0 mm 0.00 in0.0 mm 0.00 in0.0 mm
06:49 AM 34.0°F1.1°C 31.8°F-0.1°C 92% 2.0 mph SSW3.2 kmh SSW 5.4 mph8.7 kmh 29.98 in1015.2 mb 0.00 in0.0 mm 0.00 in0.0 mm 0.00 in0.0 mm
06:44 AM 34.0°F1.1°C 31.8°F-0.1°C 92% 2.5 mph S4.0 kmh S 5.4 mph8.7 kmh 29.98 in1015.2 mb 0.00 in0.0 mm 0.00 in0.0 mm 0.00 in0.0 mm
06:39 AM 34.0°F1.1°C 31.8°F-0.1°C 92% 2.7 mph SSE4.3 kmh SSE 6.3 mph10.1 kmh 29.98 in1015.2 mb 0.00 in0.0 mm 0.00 in0.0 mm 0.00 in0.0 mm
06:34 AM 34.0°F1.1°C 31.8°F-0.1°C 92% 2.5 mph S4.0 kmh S 9.6 mph15.4 kmh 29.98 in1015.2 mb 0.00 in0.0 mm 0.00 in0.0 mm 0.00 in0.0 mm
06:29 AM 34.0°F1.1°C 31.8°F-0.1°C 92% 4.7 mph SSW7.6 kmh SSW 8.5 mph13.7 kmh 29.98 in1015.2 mb 0.00 in0.0 mm 0.00 in0.0 mm 0.00 in0.0 mm
06:24 AM 33.8°F1.0°C 31.6°F-0.2°C 92% 3.1 mph SSW5.0 kmh SSW 9.6 mph15.4 kmh 29.98 in1015.2 mb 0.00 in0.0 mm 0.00 in0.0 mm 0.00 in0.0 mm
06:19 AM 33.6°F0.9°C 31.3°F-0.4°C 91% 4.7 mph S7.6 kmh S 7.4 mph11.9 kmh 29.98 in1015.2 mb 0.00 in0.0 mm 0.00 in0.0 mm 0.00 in0.0 mm
06:14 AM 33.6°F0.9°C 31.3°F-0.4°C 91% 4.3 mph SSW6.9 kmh SSW 7.4 mph11.9 kmh 29.98 in1015.2 mb 0.00 in0.0 mm 0.00 in0.0 mm 0.00 in0.0 mm
06:09 AM 33.6°F0.9°C 31.3°F-0.4°C 91% 3.1 mph S5.0 kmh S 6.3 mph10.1 kmh 29.98 in1015.2 mb 0.00 in0.0 mm 0.00 in0.0 mm 0.00 in0.0 mm
06:04 AM 33.6°F0.9°C 31.3°F-0.4°C 91% 3.8 mph SE6.1 kmh SE 8.5 mph13.7 kmh 29.98 in1015.2 mb 0.00 in0.0 mm 0.00 in0.0 mm 0.00 in0.0 mm
05:59 AM 33.6°F0.9°C 31.3°F-0.4°C 91% 2.9 mph S4.7 kmh S 6.3 mph10.1 kmh 29.98 in1015.2 mb 0.00 in0.0 mm 0.00 in0.0 mm 0.00 in0.0 mm
05:54 AM 33.6°F0.9°C 31.3°F-0.4°C 91% 3.1 mph SSE5.0 kmh SSE 7.4 mph11.9 kmh 29.99 in1015.6 mb 0.00 in0.0 mm 0.00 in0.0 mm 0.00 in0.0 mm
05:49 AM 33.6°F0.9°C 31.3°F-0.4°C 91% 4.7 mph S7.6 kmh S 7.4 mph11.9 kmh 29.99 in1015.6 mb 0.00 in0.0 mm 0.00 in0.0 mm 0.00 in0.0 mm
05:44 AM 33.8°F1.0°C 31.5°F-0.3°C 91% 3.8 mph S6.1 kmh S 9.6 mph15.4 kmh 29.99 in1015.6 mb 0.00 in0.0 mm 0.00 in0.0 mm 0.00 in0.0 mm
05:39 AM 33.8°F1.0°C 31.5°F-0.3°C 91% 3.8 mph S6.1 kmh S 7.4 mph11.9 kmh 30.00 in1015.9 mb 0.00 in0.0 mm 0.00 in0.0 mm 0.00 in0.0 mm
05:34 AM 33.6°F0.9°C 31.3°F-0.4°C 91% 4.3 mph S6.9 kmh S 6.3 mph10.1 kmh 30.00 in1015.9 mb 0.00 in0.0 mm 0.00 in0.0 mm 0.00 in0.0 mm
05:29 AM 33.8°F1.0°C 31.5°F-0.3°C 91% 2.5 mph SW4.0 kmh SW 6.3 mph10.1 kmh 29.99 in1015.6 mb 0.00 in0.0 mm 0.00 in0.0 mm 0.00 in0.0 mm
05:24 AM 33.8°F1.0°C 31.5°F-0.3°C 91% 2.9 mph S4.7 kmh S 6.3 mph10.1 kmh 29.99 in1015.6 mb 0.00 in0.0 mm 0.00 in0.0 mm 0.00 in0.0 mm
05:19 AM 34.0°F1.1°C 31.3°F-0.4°C 90% 3.1 mph S5.0 kmh S 6.3 mph10.1 kmh 29.99 in1015.6 mb 0.00 in0.0 mm 0.00 in0.0 mm 0.00 in0.0 mm
05:14 AM 34.0°F1.1°C 31.3°F-0.4°C 90% 2.5 mph SSW4.0 kmh SSW 5.4 mph8.7 kmh 29.99 in1015.6 mb 0.00 in0.0 mm 0.00 in0.0 mm 0.00 in0.0 mm
05:09 AM 34.0°F1.1°C 31.3°F-0.4°C 90% 1.6 mph S2.6 kmh S 4.3 mph6.9 kmh 30.00 in1015.9 mb 0.00 in0.0 mm 0.00 in0.0 mm 0.00 in0.0 mm
05:04 AM 34.2°F1.2°C 31.5°F-0.3°C 90% 2.9 mph SSW4.7 kmh SSW 4.3 mph6.9 kmh 30.00 in1015.9 mb 0.00 in0.0 mm 0.00 in0.0 mm 0.00 in0.0 mm
04:59 AM 34.2°F1.2°C 31.5°F-0.3°C 90% 2.5 mph SSE4.0 kmh SSE 5.4 mph8.7 kmh 30.01 in1016.3 mb 0.00 in0.0 mm 0.00 in0.0 mm 0.00 in0.0 mm
04:53 AM 34.3°F1.3°C 31.5°F-0.3°C 89% 2.2 mph SSW3.5 kmh SSW 5.4 mph8.7 kmh 30.01 in1016.3 mb 0.00 in0.0 mm 0.00 in0.0 mm 0.00 in0.0 mm
04:48 AM 34.3°F1.3°C 31.5°F-0.3°C 89% 3.6 mph S5.8 kmh S 5.4 mph8.7 kmh 30.02 in1016.6 mb 0.00 in0.0 mm 0.00 in0.0 mm 0.00 in0.0 mm
04:43 AM 34.5°F1.4°C 31.6°F-0.2°C 89% 2.5 mph SW4.0 kmh SW 4.3 mph6.9 kmh 30.02 in1016.6 mb 0.00 in0.0 mm 0.00 in0.0 mm 0.00 in0.0 mm
04:38 AM 34.5°F1.4°C 31.8°F-0.1°C 90% 4.3 mph SW6.9 kmh SW 7.4 mph11.9 kmh 30.02 in1016.6 mb 0.00 in0.0 mm 0.00 in0.0 mm 0.00 in0.0 mm
04:33 AM 34.3°F1.3°C 31.6°F-0.2°C 90% 3.1 mph S5.0 kmh S 6.3 mph10.1 kmh 30.02 in1016.6 mb 0.00 in0.0 mm 0.00 in0.0 mm 0.00 in0.0 mm
04:28 AM 34.3°F1.3°C 31.6°F-0.2°C 90% 4.0 mph S6.4 kmh S 7.4 mph11.9 kmh 30.02 in1016.6 mb 0.00 in0.0 mm 0.00 in0.0 mm 0.00 in0.0 mm
04:23 AM 34.2°F1.2°C 31.8°F-0.1°C 91% 4.5 mph SW7.2 kmh SW 9.6 mph15.4 kmh 30.02 in1016.6 mb 0.00 in0.0 mm 0.00 in0.0 mm 0.00 in0.0 mm
04:18 AM 33.8°F1.0°C 31.6°F-0.2°C 92% 3.1 mph S5.0 kmh S 6.3 mph10.1 kmh 30.02 in1016.6 mb 0.00 in0.0 mm 0.00 in0.0 mm 0.00 in0.0 mm
04:13 AM 33.4°F0.8°C 31.3°F-0.4°C 92% 3.8 mph SW6.1 kmh SW 6.3 mph10.1 kmh 30.02 in1016.6 mb 0.00 in0.0 mm 0.00 in0.0 mm 0.00 in0.0 mm
04:08 AM 33.3°F0.7°C 31.1°F-0.5°C 92% 2.5 mph S4.0 kmh S 8.5 mph13.7 kmh 30.02 in1016.6 mb 0.00 in0.0 mm 0.00 in0.0 mm 0.00 in0.0 mm
04:03 AM 33.3°F0.7°C 31.1°F-0.5°C 92% 3.6 mph SW5.8 kmh SW 7.4 mph11.9 kmh 30.02 in1016.6 mb 0.00 in0.0 mm 0.00 in0.0 mm 0.00 in0.0 mm
03:58 AM 33.1°F0.6°C 31.1°F-0.5°C 92% 3.8 mph SSW6.1 kmh SSW 6.3 mph10.1 kmh 30.02 in1016.6 mb 0.00 in0.0 mm 0.00 in0.0 mm 0.00 in0.0 mm
03:53 AM 33.1°F0.6°C 31.3°F-0.4°C 93% 4.0 mph SSW6.4 kmh SSW 5.4 mph8.7 kmh 30.02 in1016.6 mb 0.00 in0.0 mm 0.00 in0.0 mm 0.00 in0.0 mm
03:48 AM 32.9°F0.5°C 31.1°F-0.5°C 93% 4.9 mph SSW7.9 kmh SSW 6.3 mph10.1 kmh 30.02 in1016.6 mb 0.00 in0.0 mm 0.00 in0.0 mm 0.00 in0.0 mm
03:43 AM 32.7°F0.4°C 30.9°F-0.6°C 93% 4.5 mph SW7.2 kmh SW 7.4 mph11.9 kmh 30.02 in1016.6 mb 0.00 in0.0 mm 0.00 in0.0 mm 0.00 in0.0 mm
03:38 AM 32.5°F0.3°C 30.7°F-0.7°C 93% 4.7 mph SW7.6 kmh SW 6.3 mph10.1 kmh 30.02 in1016.6 mb 0.00 in0.0 mm 0.00 in0.0 mm 0.00 in0.0 mm
03:33 AM 32.4°F0.2°C 30.6°F-0.8°C 93% 3.8 mph SW6.1 kmh SW 5.4 mph8.7 kmh 30.02 in1016.6 mb 0.00 in0.0 mm 0.00 in0.0 mm 0.00 in0.0 mm
03:28 AM 32.4°F0.2°C 30.6°F-0.8°C 93% 3.8 mph SW6.1 kmh SW 4.3 mph6.9 kmh 30.02 in1016.6 mb 0.00 in0.0 mm 0.00 in0.0 mm 0.00 in0.0 mm
03:23 AM 32.4°F0.2°C 30.6°F-0.8°C 93% 3.1 mph SW5.0 kmh SW 5.4 mph8.7 kmh 30.02 in1016.6 mb 0.00 in0.0 mm 0.00 in0.0 mm 0.00 in0.0 mm
03:18 AM 32.4°F0.2°C 30.6°F-0.8°C 93% 3.6 mph SW5.8 kmh SW 6.3 mph10.1 kmh 30.02 in1016.6 mb 0.00 in0.0 mm 0.00 in0.0 mm 0.00 in0.0 mm
03:13 AM 32.4°F0.2°C 30.6°F-0.8°C 93% 3.8 mph SSW6.1 kmh SSW 6.3 mph10.1 kmh 30.02 in1016.6 mb 0.00 in0.0 mm 0.00 in0.0 mm 0.00 in0.0 mm
03:08 AM 32.5°F0.3°C 30.7°F-0.7°C 93% 3.8 mph WSW6.1 kmh WSW 7.4 mph11.9 kmh 30.02 in1016.6 mb 0.00 in0.0 mm 0.00 in0.0 mm 0.00 in0.0 mm
03:03 AM 32.5°F0.3°C 30.7°F-0.7°C 93% 3.8 mph SW6.1 kmh SW 5.4 mph8.7 kmh 30.02 in1016.6 mb 0.00 in0.0 mm 0.00 in0.0 mm 0.00 in0.0 mm
02:58 AM 32.5°F0.3°C 30.7°F-0.7°C 93% 4.3 mph SSW6.9 kmh SSW 7.4 mph11.9 kmh 30.02 in1016.6 mb 0.00 in0.0 mm 0.00 in0.0 mm 0.00 in0.0 mm
02:53 AM 32.5°F0.3°C 30.6°F-0.8°C 92% 3.8 mph SW6.1 kmh SW 6.3 mph10.1 kmh 30.02 in1016.6 mb 0.00 in0.0 mm 0.00 in0.0 mm 0.00 in0.0 mm
02:48 AM 32.5°F0.3°C 30.7°F-0.7°C 93% 4.7 mph SSW7.6 kmh SSW 7.4 mph11.9 kmh 30.02 in1016.6 mb 0.00 in0.0 mm 0.00 in0.0 mm 0.00 in0.0 mm
02:43 AM 32.5°F0.3°C 30.7°F-0.7°C 93% 4.9 mph S7.9 kmh S 8.5 mph13.7 kmh 30.02 in1016.6 mb 0.00 in0.0 mm 0.00 in0.0 mm 0.00 in0.0 mm
02:38 AM 32.5°F0.3°C 30.7°F-0.7°C 93% 4.7 mph SSW7.6 kmh SSW 7.4 mph11.9 kmh 30.01 in1016.3 mb 0.00 in0.0 mm 0.00 in0.0 mm 0.00 in0.0 mm
02:33 AM 32.5°F0.3°C 30.7°F-0.7°C 93% 3.8 mph SW6.1 kmh SW 7.4 mph11.9 kmh 30.01 in1016.3 mb 0.00 in0.0 mm 0.00 in0.0 mm 0.00 in0.0 mm
02:28 AM 32.5°F0.3°C 30.7°F-0.7°C 93% 3.6 mph SW5.8 kmh SW 6.3 mph10.1 kmh 30.01 in1016.3 mb 0.00 in0.0 mm 0.00 in0.0 mm 0.00 in0.0 mm
02:23 AM 32.5°F0.3°C 30.7°F-0.7°C 93% 4.7 mph SSW7.6 kmh SSW 7.4 mph11.9 kmh 30.01 in1016.3 mb 0.00 in0.0 mm 0.00 in0.0 mm 0.00 in0.0 mm
02:18 AM 32.5°F0.3°C 30.7°F-0.7°C 93% 3.1 mph SW5.0 kmh SW 6.3 mph10.1 kmh 30.01 in1016.3 mb 0.00 in0.0 mm 0.00 in0.0 mm 0.00 in0.0 mm
02:13 AM 32.5°F0.3°C 30.6°F-0.8°C 92% 3.4 mph SW5.5 kmh SW 5.4 mph8.7 kmh 30.02 in1016.6 mb 0.00 in0.0 mm 0.00 in0.0 mm 0.00 in0.0 mm
02:08 AM 32.5°F0.3°C 30.6°F-0.8°C 92% 2.9 mph SW4.7 kmh SW 4.3 mph6.9 kmh 30.01 in1016.3 mb 0.00 in0.0 mm 0.00 in0.0 mm 0.00 in0.0 mm
02:03 AM 32.5°F0.3°C 30.6°F-0.8°C 92% 2.0 mph SSW3.2 kmh SSW 4.3 mph6.9 kmh 30.01 in1016.3 mb 0.00 in0.0 mm 0.00 in0.0 mm 0.00 in0.0 mm
01:58 AM 32.7°F0.4°C 30.7°F-0.7°C 92% 2.0 mph SSW3.2 kmh SSW 5.4 mph8.7 kmh 30.01 in1016.3 mb 0.00 in0.0 mm 0.00 in0.0 mm 0.00 in0.0 mm
01:53 AM 32.7°F0.4°C 30.7°F-0.7°C 92% 2.5 mph S4.0 kmh S 5.4 mph8.7 kmh 30.01 in1016.3 mb 0.00 in0.0 mm 0.00 in0.0 mm 0.00 in0.0 mm
01:48 AM 32.9°F0.5°C 30.9°F-0.6°C 92% 2.5 mph S4.0 kmh S 5.4 mph8.7 kmh 30.01 in1016.3 mb 0.00 in0.0 mm 0.00 in0.0 mm 0.00 in0.0 mm
01:43 AM 32.9°F0.5°C 30.6°F-0.8°C 91% 2.0 mph SSW3.2 kmh SSW 4.3 mph6.9 kmh 30.01 in1016.3 mb 0.00 in0.0 mm 0.00 in0.0 mm 0.00 in0.0 mm
01:38 AM 33.1°F0.6°C 30.7°F-0.7°C 91% 2.9 mph SSW4.7 kmh SSW 5.4 mph8.7 kmh 30.01 in1016.3 mb 0.00 in0.0 mm 0.00 in0.0 mm 0.00 in0.0 mm
01:33 AM 33.3°F0.7°C 30.9°F-0.6°C 91% 2.0 mph SSW3.2 kmh SSW 4.3 mph6.9 kmh 30.01 in1016.3 mb 0.00 in0.0 mm 0.00 in0.0 mm 0.00 in0.0 mm
01:28 AM 33.4°F0.8°C 31.1°F-0.5°C 91% 2.7 mph S4.3 kmh S 6.3 mph10.1 kmh 30.02 in1016.6 mb 0.00 in0.0 mm 0.00 in0.0 mm 0.00 in0.0 mm
01:23 AM 33.4°F0.8°C 30.7°F-0.7°C 90% 3.1 mph S5.0 kmh S 5.4 mph8.7 kmh 30.02 in1016.6 mb 0.00 in0.0 mm 0.00 in0.0 mm 0.00 in0.0 mm
01:18 AM 33.4°F0.8°C 31.1°F-0.5°C 91% 3.8 mph SSW6.1 kmh SSW 5.4 mph8.7 kmh 30.02 in1016.6 mb 0.00 in0.0 mm 0.00 in0.0 mm 0.00 in0.0 mm
01:13 AM 33.4°F0.8°C 31.1°F-0.5°C 91% 4.9 mph SSE7.9 kmh SSE 7.4 mph11.9 kmh 30.02 in1016.6 mb 0.00 in0.0 mm 0.00 in0.0 mm 0.00 in0.0 mm
01:08 AM 33.4°F0.8°C 31.1°F-0.5°C 91% 4.3 mph SSW6.9 kmh SSW 7.4 mph11.9 kmh 30.03 in1016.9 mb 0.00 in0.0 mm 0.00 in0.0 mm 0.00 in0.0 mm
01:03 AM 33.4°F0.8°C 31.1°F-0.5°C 91% 3.4 mph SW5.5 kmh SW 5.4 mph8.7 kmh 30.03 in1016.9 mb 0.00 in0.0 mm 0.00 in0.0 mm 0.00 in0.0 mm
12:58 AM 33.4°F0.8°C 31.1°F-0.5°C 91% 2.2 mph SW3.5 kmh SW 5.4 mph8.7 kmh 30.03 in1016.9 mb 0.00 in0.0 mm 0.00 in0.0 mm 0.00 in0.0 mm
12:53 AM 33.4°F0.8°C 31.1°F-0.5°C 91% 2.9 mph SE4.7 kmh SE 8.5 mph13.7 kmh 30.03 in1016.9 mb 0.00 in0.0 mm 0.00 in0.0 mm 0.00 in0.0 mm
12:48 AM 33.4°F0.8°C 31.1°F-0.5°C 91% 4.3 mph S6.9 kmh S 7.4 mph11.9 kmh 30.03 in1016.9 mb 0.00 in0.0 mm 0.00 in0.0 mm 0.00 in0.0 mm
12:43 AM 33.4°F0.8°C 31.3°F-0.4°C 92% 3.1 mph SSW5.0 kmh SSW 5.4 mph8.7 kmh 30.04 in1017.3 mb 0.00 in0.0 mm 0.00 in0.0 mm 0.00 in0.0 mm
12:38 AM 33.3°F0.7°C 31.1°F-0.5°C 92% 3.4 mph SSW5.5 kmh SSW 6.3 mph10.1 kmh 30.04 in1017.3 mb 0.00 in0.0 mm 0.00 in0.0 mm 0.00 in0.0 mm
12:33 AM 33.3°F0.7°C 30.9°F-0.6°C 91% 2.9 mph SSW4.7 kmh SSW 4.3 mph6.9 kmh 30.04 in1017.3 mb 0.00 in0.0 mm 0.00 in0.0 mm 0.00 in0.0 mm
12:28 AM 33.4°F0.8°C 31.1°F-0.5°C 91% 1.8 mph S2.9 kmh S 3.1 mph5.0 kmh 30.04 in1017.3 mb 0.00 in0.0 mm 0.00 in0.0 mm 0.00 in0.0 mm
12:23 AM 33.4°F0.8°C 31.1°F-0.5°C 91% 0.2 mph S0.3 kmh S 2.0 mph3.2 kmh 30.04 in1017.3 mb 0.00 in0.0 mm 0.00 in0.0 mm 0.00 in0.0 mm
12:18 AM 33.6°F0.9°C 31.3°F-0.4°C 91% 2.2 mph SSW3.5 kmh SSW 4.3 mph6.9 kmh 30.04 in1017.3 mb 0.00 in0.0 mm 0.00 in0.0 mm 0.00 in0.0 mm
12:13 AM 33.6°F0.9°C 31.3°F-0.4°C 91% 2.2 mph SW3.5 kmh SW 5.4 mph8.7 kmh 30.04 in1017.3 mb 0.00 in0.0 mm 0.00 in0.0 mm 0.00 in0.0 mm
12:08 AM 33.6°F0.9°C 31.3°F-0.4°C 91% 2.0 mph SW3.2 kmh SW 5.4 mph8.7 kmh 30.04 in1017.3 mb 0.00 in0.0 mm 0.00 in0.0 mm 0.00 in0.0 mm
12:03 AM 33.6°F0.9°C 31.3°F-0.4°C 91% 3.6 mph SSW5.8 kmh SSW 6.3 mph10.1 kmh 30.05 in1017.6 mb 0.00 in0.0 mm 0.00 in0.0 mm 0.00 in0.0 mm